Honolulu, HI (96815)

4:14 PM HST on August 31, 2016 (GMT -1000)
Kaimuki - Lower SIerra Drive | | Change Station

Elev 217 ft 21.29 °N, 157.80 °W | Updated 11 seconds ago

Mostly Cloudy
Mostly Cloudy
81.9 °F
Feels Like 87 °F
N
7.2
Wind Variable Wind from ENE
Gusts 13.0 mph

Today
High -- | Low -- °F
--% Chance of Precip.
Yesterday
High -- | Low -- °F
Precip. -- in
Pressure 29.90 in
Visibility 10.0 miles
Clouds Few 2600 ft
Scattered Clouds 3200 ft
Mostly Cloudy 6500 ft
Heat Index 87 °F
Dew Point 72 °F
Humidity 72%
Rainfall 0.02 in
Snow Depth Not available.
6:14 AM 6:47 PM
Waning Crescent, 0% visible
METAR PHNL 010153Z 07015G26KT 10SM FEW026 SCT032 BKN065 29/21 A2989 RMK AO2 PK WND 06027/0132 SLP123 T02940211
Pressure 29.90 in
Visibility 10.0 miles
Clouds Few 2600 ft
Scattered Clouds 3200 ft
Mostly Cloudy 6500 ft
Heat Index 87 °F
Dew Point 72 °F
Humidity 72%
Rainfall 0.02 in
Snow Depth Not available.
6:14 AM 6:47 PM
Waning Crescent, 0% visible
METAR PHNL 010153Z 07015G26KT 10SM FEW026 SCT032 BKN065 29/21 A2989 RMK AO2 PK WND 06027/0132 SLP123 T02940211

10-Day Weather Forecast

Almanac

Astronomy

Aug. 31, 2016 Rise Set
Actual Time
Civil Twilight
Nautical Twilight
Astronomical Twilight
Moon
Length of Visible Light
Length of Day
Tomorrow will be .
, % of the Moon is Illuminated

Today's Extremes

State Highs State Lows

Community

WunderPhotos

Upload Photos

1,936,273 photos uploaded!

WunderBlog® & News

Nearby

Air Quality

  Air Quality AQ Index Pollutant
Not available.

Snow Depth

Station Depth Elevation

Earthquake Activity

City Distance Mag. Time & Date
Minimum magnitude displayed is 2.5.

Coastal Water Temperatures

Place Temperature

Stations

Nearby Weather Stations

Station Location Temp. Windchill Dew Point Humidity Wind Precip. Elev Updated Type
                   

Watches & Warnings

There are currently no watches in effect.